< < Back
Terminal Aerodrome Forecast


Current Version              Previous Versions:   1  2  3  4  5  6  7  8  9  

Terminal Aerodrome Forecast

390
FTUS42 KTAE 250800 AAA
TAFABY
TAF AMD
KABY 250805Z 2508/2606 33007KT 5SM RA VCTS SCT020 OVC040CB
     FM251400 01007KT 6SM RA FEW010 OVC025=

Latest METAR

364
SAUS70 KWBC 252300 RRN
MTRABY
METAR KABY 252253Z 34004KT 10SM OVC085 10/08 A3007 RMK AO2 SLP181
T01000083 $


USA.gov is the U.S. government's official web portal to all federal, state and local government web resources and services.